Olympia, WA

3:29 AM PDT on October 02, 2014 (GMT -0700)
East Olympia | Change Station
CLOSE
Current Station
Personal Weather Station
Location: Olympia, WA
Elevation: 164 ft
Nearby Weather Stations

Elev 164 ft 46.99 °N, 122.87 °W | Updated 12 minutes ago

Partly Cloudy
Partly Cloudy
45.2 °F
Feels Like 45 °F
N
0.0
Wind Variable Wind from NW
Gusts 0.0 mph

Today
High -- | Low -- °F
--% Chance of Precip.
Yesterday
High -- | Low -- °F
Precip. -- in
7:11 AM 6:48 PM
First Quarter, 57% visible
Pressure 30.24 in
Visibility 7.0 miles
Clouds Few 6000 ft
Windchill 45 °F
Dew Point 43 °F
Humidity 92%
Rainfall 0.00 in
Snow Depth 0 in , 0 in , 0 in
UV 0.0 out of 12
Pollen 1.20 out of 12
PM2.5 Good
Flu Activity Not available.
METAR KOLM 020954Z AUTO 00000KT 7SM FEW060 08/07 A3023 RMK AO2 SLP238 T00780067

More Conditions Fewer Conditions

Pressure 30.24 in
Visibility 7.0 miles
Clouds Few 6000 ft
Windchill 45 °F
Dew Point 43 °F
Humidity 92%
Rainfall 0.00 in
Snow Depth 0 in , 0 in , 0 in
UV 0.0 out of 12
Pollen 1.20 out of 12
PM2.5 Good
Flu Activity Not available.
METAR KOLM 020954Z AUTO 00000KT 7SM FEW060 08/07 A3023 RMK AO2 SLP238 T00780067

More Conditions Fewer Conditions

10-Day Weather Forecast

Almanac

Astronomy

Oct. 02, 2014 Rise Set
Actual Time 7:11 AM PDT 6:48 PM PDT
Civil Twilight 6:41 AM PDT 7:19 PM PDT
Nautical Twilight 6:06 AM PDT 7:54 PM PDT
Astronomical Twilight 5:30 AM PDT 8:30 PM PDT
Moon 3:19 PM PDT 12:13 AM PDT
Length of Visible Light 12h 37m
Length of Day
11h 37m
Tomorrow will be 3m 20s shorter.
First Quarter, 57% of the Moon is Illuminated
Today
First Quarter
Oct 8
Full
Oct 15
Last Quarter
Oct 23
New
Oct 30
First Quarter

Today's Extremes

State Highs State Lows

Community

WunderPhotos

Upload Photos

1,758,209 photos uploaded!

WunderBlogs® & News

Nearby

Air Quality

  Air Quality AQ Index Pollutant
Yesterday Good
PM2.5
Current Good
PM2.5

Snow Depth

Station Depth Elevation
June Lake 0 in 3340 ft
Sentinel Butte 0 in 4920 ft
Stampede Pass 0 in 3860 ft
Fish Lake 0 in 3371 ft
Olallie Meadows 0 in 3700 ft

Earthquake Activity

City Distance Mag. Time & Date
No recent earthquake activity has been reported nearby.
Minimum magnitude displayed is 2.5.

Coastal Water Temperatures

Place Temperature
Port Townsend, WA 52.0 °F
Seattle, WA 55.9 °F
Friday Harbor, WA 51.1 °F
Tacoma, WA 55.0 °F

Nearby Weather Stations